createdAt,value
2022-09-03T00:00:05.881Z,43.25
2022-09-03T00:02:43.765Z,43.54
2022-09-03T00:05:23.289Z,43.32
2022-09-03T00:08:03.904Z,43.65
2022-09-03T00:10:44.964Z,43.50
2022-09-03T00:13:18.732Z,43.61
2022-09-03T00:15:49.068Z,44.00
2022-09-03T00:18:22.077Z,43.80
2022-09-03T00:20:57.510Z,43.97
2022-09-03T00:23:29.528Z,44.09
2022-09-03T00:26:05.763Z,44.12
2022-09-03T00:28:42.472Z,44.23
2022-09-03T00:31:19.394Z,43.93
2022-09-03T00:33:51.853Z,44.15
2022-09-03T00:36:27.072Z,44.51
2022-09-03T00:38:55.464Z,44.61
2022-09-03T00:41:33.632Z,44.44
2022-09-03T00:44:39.871Z,44.33
2022-09-03T00:47:18.727Z,44.30
2022-09-03T00:50:03.013Z,44.32
2022-09-03T00:52:46.317Z,44.47
2022-09-03T00:55:27.553Z,44.88
2022-09-03T00:58:21.472Z,44.58
2022-09-03T01:00:52.865Z,45.14
2022-09-03T01:03:34.440Z,44.85
2022-09-03T01:06:18.842Z,45.16
2022-09-03T01:09:10.284Z,45.51
2022-09-03T01:11:51.413Z,45.65
2022-09-03T01:14:45.884Z,45.74
2022-09-03T01:17:29.952Z,45.77
2022-09-03T01:20:28.590Z,45.69
2022-09-03T01:23:28.665Z,46.16
2022-09-03T01:26:16.921Z,46.16
2022-09-03T01:29:02.583Z,46.59
2022-09-03T01:31:40.181Z,46.65
2022-09-03T01:34:25.479Z,46.84
2022-09-03T01:37:01.079Z,46.80
2022-09-03T01:39:42.790Z,46.84
2022-09-03T01:42:22.134Z,47.28
2022-09-03T01:45:31.489Z,47.18
2022-09-03T01:48:18.100Z,47.40
2022-09-03T01:50:54.900Z,47.55
2022-09-03T01:53:39.009Z,47.57
2022-09-03T01:56:26.911Z,47.65
2022-09-03T01:59:03.901Z,47.88
2022-09-03T02:01:39.133Z,47.72
2022-09-03T02:04:20.472Z,47.85
2022-09-03T02:06:49.943Z,48.22
2022-09-03T02:09:18.879Z,48.18
2022-09-03T02:11:54.317Z,47.92
2022-09-03T02:14:23.056Z,48.13
2022-09-03T02:16:52.772Z,48.40
2022-09-03T02:19:21.337Z,48.39
2022-09-03T02:21:54.545Z,48.28
2022-09-03T02:24:23.709Z,48.72
2022-09-03T02:26:52.088Z,48.67
2022-09-03T02:29:20.728Z,48.84
2022-09-03T02:31:49.244Z,48.71
2022-09-03T02:34:18.999Z,48.52
2022-09-03T02:36:48.916Z,48.74
2022-09-03T02:39:18.154Z,48.72
2022-09-03T02:41:58.391Z,48.76
2022-09-03T02:44:31.830Z,48.65
2022-09-03T02:47:02.900Z,49.16
2022-09-03T02:49:33.264Z,48.92
2022-09-03T02:52:05.871Z,49.08
2022-09-03T02:54:36.863Z,49.48
2022-09-03T02:57:05.475Z,49.61
2022-09-03T02:59:34.319Z,49.89
2022-09-03T03:02:03.371Z,49.90
2022-09-03T03:04:34.391Z,49.90
2022-09-03T03:07:02.965Z,50.11
2022-09-03T03:09:31.325Z,50.11
2022-09-03T03:11:59.639Z,50.27
2022-09-03T03:14:28.383Z,50.55
2022-09-03T03:16:57.251Z,50.67
2022-09-03T03:19:25.548Z,50.60
2022-09-03T03:21:55.531Z,50.89
2022-09-03T03:24:24.092Z,50.83
2022-09-03T03:26:52.656Z,51.04
2022-09-03T03:29:21.340Z,50.99
2022-09-03T03:31:49.622Z,51.27
2022-09-03T03:34:17.913Z,51.48
2022-09-03T03:36:46.200Z,51.63
2022-09-03T03:39:15.952Z,51.26
2022-09-03T03:41:44.264Z,51.77
2022-09-03T03:44:12.847Z,51.78
2022-09-03T03:46:42.503Z,52.02
2022-09-03T03:49:11.087Z,52.12
2022-09-03T03:51:40.761Z,51.99
2022-09-03T03:54:09.430Z,52.13
2022-09-03T03:56:39.029Z,51.96
2022-09-03T03:59:07.321Z,52.15
2022-09-03T04:01:35.999Z,52.13
2022-09-03T04:04:05.620Z,52.28
2022-09-03T04:06:33.923Z,52.21
2022-09-03T04:09:02.393Z,52.23
2022-09-03T04:11:30.655Z,51.97
2022-09-03T04:14:00.302Z,52.44
2022-09-03T04:16:29.620Z,52.17
2022-09-03T04:18:58.500Z,52.11
2022-09-03T04:21:29.195Z,52.42
2022-09-03T04:23:58.869Z,52.19
2022-09-03T04:26:31.449Z,52.24
2022-09-03T04:29:03.068Z,52.17
2022-09-03T04:31:32.644Z,52.46
2022-09-03T04:34:01.183Z,52.67
2022-09-03T04:36:31.927Z,52.38
2022-09-03T04:39:02.671Z,52.33
2022-09-03T04:41:32.548Z,52.42
2022-09-03T04:44:02.224Z,52.71
2022-09-03T04:46:33.512Z,52.95
2022-09-03T04:49:02.918Z,53.20
2022-09-03T04:51:31.783Z,53.51
2022-09-03T04:54:02.877Z,53.62
2022-09-03T04:56:34.177Z,53.95
2022-09-03T04:59:06.811Z,53.60
2022-09-03T05:01:38.383Z,53.92
2022-09-03T05:04:08.184Z,53.94
2022-09-03T05:06:38.321Z,53.83
2022-09-03T05:09:07.677Z,54.11
2022-09-03T05:11:36.240Z,53.83
2022-09-03T05:14:07.148Z,53.74
2022-09-03T05:16:35.538Z,54.07
2022-09-03T05:19:06.335Z,54.17
2022-09-03T05:21:36.611Z,54.02
2022-09-03T05:24:06.247Z,54.35
2022-09-03T05:26:38.766Z,54.77
2022-09-03T05:29:09.356Z,55.22
2022-09-03T05:31:40.009Z,56.39
2022-09-03T05:34:10.056Z,57.92
2022-09-03T05:36:39.935Z,59.57
2022-09-03T05:39:08.655Z,61.99
2022-09-03T05:41:37.784Z,64.12
2022-09-03T05:44:06.393Z,66.34
2022-09-03T05:46:37.766Z,68.89
2022-09-03T05:49:08.591Z,71.27
2022-09-03T05:51:39.489Z,73.38
2022-09-03T05:54:09.227Z,75.03
2022-09-03T05:56:41.081Z,76.53
2022-09-03T05:59:11.784Z,77.64
2022-09-03T06:01:51.606Z,78.70
2022-09-03T06:04:21.397Z,79.69
2022-09-03T06:06:49.983Z,80.92
2022-09-03T06:09:20.570Z,81.64
2022-09-03T06:11:50.462Z,82.60
2022-09-03T06:14:22.029Z,83.38
2022-09-03T06:16:52.979Z,83.85
2022-09-03T06:19:22.063Z,84.31
2022-09-03T06:21:50.577Z,84.96
2022-09-03T06:24:24.686Z,85.43
2022-09-03T06:26:56.476Z,85.56
2022-09-03T06:29:24.875Z,86.07
2022-09-03T06:31:56.002Z,86.40
2022-09-03T06:34:27.220Z,86.74
2022-09-03T06:36:55.667Z,86.79
2022-09-03T06:39:24.709Z,86.97
2022-09-03T06:41:53.498Z,87.30
2022-09-03T06:44:28.606Z,87.64
2022-09-03T06:47:01.363Z,87.97
2022-09-03T06:49:31.395Z,88.28
2022-09-03T06:51:59.990Z,88.89
2022-09-03T06:54:28.392Z,89.17
2022-09-03T06:56:56.692Z,89.68
2022-09-03T06:59:24.968Z,89.90
2022-09-03T07:01:53.588Z,89.86
2022-09-03T07:04:25.075Z,90.12
2022-09-03T07:06:53.506Z,90.63
2022-09-03T07:09:21.763Z,90.87
2022-09-03T07:11:50.098Z,91.24
2022-09-03T07:14:20.248Z,91.49
2022-09-03T07:16:49.947Z,92.17
2022-09-03T07:19:18.479Z,92.79
2022-09-03T07:21:50.819Z,93.33
2022-09-03T07:24:22.012Z,93.68
2022-09-03T07:26:52.128Z,94.40
2022-09-03T07:29:21.652Z,94.97
2022-09-03T07:31:53.159Z,95.31
2022-09-03T07:34:27.101Z,95.51
2022-09-03T07:36:57.869Z,95.92
2022-09-03T07:39:26.935Z,96.33
2022-09-03T07:41:58.311Z,96.51
2022-09-03T07:44:28.545Z,96.93
2022-09-03T07:46:58.771Z,97.09
2022-09-03T07:49:27.371Z,97.38
2022-09-03T07:51:57.102Z,97.32
2022-09-03T07:54:27.312Z,97.51
2022-09-03T07:56:56.814Z,97.52
2022-09-03T07:59:26.114Z,97.51
2022-09-03T08:01:54.616Z,97.60
2022-09-03T08:04:23.050Z,97.82
2022-09-03T08:06:55.381Z,98.04
2022-09-03T08:09:25.175Z,98.29
2022-09-03T08:11:53.487Z,98.36
2022-09-03T08:14:22.180Z,98.35
2022-09-03T08:16:50.773Z,98.29
2022-09-03T08:19:20.040Z,98.46
2022-09-03T08:21:48.840Z,98.34
2022-09-03T08:24:20.883Z,98.55
2022-09-03T08:26:52.575Z,98.63
2022-09-03T08:29:22.183Z,98.63
2022-09-03T08:31:50.884Z,98.37
2022-09-03T08:34:21.356Z,98.69
2022-09-03T08:36:50.486Z,98.56
2022-09-03T08:39:19.058Z,98.19
2022-09-03T08:42:25.536Z,98.36
2022-09-03T08:44:58.170Z,98.05
2022-09-03T08:47:31.197Z,98.05
2022-09-03T08:50:04.471Z,98.23
2022-09-03T08:52:38.668Z,97.55
2022-09-03T08:55:21.489Z,97.40
2022-09-03T08:57:56.612Z,96.76
2022-09-03T09:00:24.972Z,97.04
2022-09-03T09:03:30.875Z,97.07
2022-09-03T09:06:08.258Z,97.83
2022-09-03T09:08:49.401Z,96.52
2022-09-03T09:11:38.832Z,97.04
2022-09-03T09:14:19.719Z,97.11
2022-09-03T09:17:00.893Z,97.56
2022-09-03T09:19:46.748Z,97.54
2022-09-03T09:22:25.267Z,96.92
2022-09-03T09:24:57.357Z,97.50
2022-09-03T09:27:26.367Z,97.96
2022-09-03T09:30:01.766Z,98.17
2022-09-03T09:32:31.973Z,98.50
2022-09-03T09:35:00.543Z,98.26
2022-09-03T09:37:29.047Z,98.27
2022-09-03T09:40:00.518Z,97.99
2022-09-03T09:42:30.985Z,96.84
2022-09-03T09:45:11.850Z,95.42
2022-09-03T09:47:41.624Z,91.59
2022-09-03T09:50:25.068Z,90.79
2022-09-03T09:53:06.851Z,90.68
2022-09-03T09:55:35.873Z,89.76
2022-09-03T09:58:13.994Z,84.46
2022-09-03T10:00:59.807Z,83.72
2022-09-03T10:03:31.311Z,84.25
2022-09-03T10:06:23.247Z,87.35
2022-09-03T10:08:51.644Z,87.59
2022-09-03T10:11:23.636Z,88.30
2022-09-03T10:13:53.593Z,88.60
2022-09-03T10:16:28.539Z,89.63
2022-09-03T10:19:07.795Z,87.48
2022-09-03T10:21:46.729Z,88.02
2022-09-03T10:24:44.929Z,90.82
2022-09-03T10:27:23.640Z,91.39
2022-09-03T10:29:53.407Z,90.75
2022-09-03T10:32:41.856Z,90.14
2022-09-03T10:35:26.955Z,89.29
2022-09-03T10:38:07.960Z,89.09
2022-09-03T10:40:41.983Z,89.10
2022-09-03T10:43:37.920Z,89.92
2022-09-03T10:46:20.591Z,88.51
2022-09-03T10:49:23.433Z,89.89
2022-09-03T10:52:00.257Z,86.85
2022-09-03T10:54:50.695Z,86.76
2022-09-03T10:57:33.076Z,85.72
2022-09-03T11:00:10.147Z,82.42
2022-09-03T11:03:12.728Z,82.08
2022-09-03T11:05:50.133Z,81.06
2022-09-03T11:08:25.581Z,82.74
2022-09-03T11:10:58.262Z,85.27
2022-09-03T11:13:31.085Z,83.96
2022-09-03T11:16:05.038Z,84.01
2022-09-03T11:18:42.203Z,83.30
2022-09-03T11:21:17.574Z,83.44
2022-09-03T11:23:55.296Z,82.60
2022-09-03T11:26:27.776Z,82.73
2022-09-03T11:29:03.160Z,84.03
2022-09-03T11:31:48.039Z,84.65
2022-09-03T11:34:32.329Z,88.84
2022-09-03T11:37:21.541Z,85.07
2022-09-03T11:40:00.307Z,81.91
2022-09-03T11:42:37.219Z,81.60
2022-09-03T11:45:23.606Z,83.89
2022-09-03T11:47:53.766Z,81.31
2022-09-03T11:50:26.130Z,81.55
2022-09-03T11:53:08.514Z,81.60
2022-09-03T11:55:55.228Z,83.89
2022-09-03T11:58:29.776Z,82.89
2022-09-03T12:00:59.607Z,80.86
2022-09-03T12:03:36.679Z,81.58
2022-09-03T12:06:40.022Z,83.25
2022-09-03T12:09:40.045Z,83.60
2022-09-03T12:12:29.904Z,83.39
2022-09-03T12:15:07.692Z,83.47
2022-09-03T12:17:45.485Z,84.29
2022-09-03T12:20:17.214Z,83.81
2022-09-03T12:22:45.691Z,83.69
2022-09-03T12:25:17.398Z,82.64
2022-09-03T12:27:49.343Z,81.62
2022-09-03T12:30:23.147Z,81.75
2022-09-03T12:32:52.519Z,81.43
2022-09-03T12:38:18.549Z,80.77
2022-09-03T12:43:37.611Z,77.38
2022-09-03T12:46:14.591Z,72.67
2022-09-03T12:51:52.350Z,70.76
2022-09-03T12:54:23.055Z,70.22
2022-09-03T12:56:58.744Z,69.16
2022-09-03T12:59:32.481Z,67.03
2022-09-03T13:02:06.610Z,68.33
2022-09-03T13:04:38.137Z,67.94
2022-09-03T13:07:13.940Z,67.40
2022-09-03T13:09:43.284Z,65.28
2022-09-03T13:12:30.165Z,66.69
2022-09-03T13:15:06.600Z,64.22
2022-09-03T13:18:07.244Z,67.60
2022-09-03T13:20:43.685Z,65.71
2022-09-03T13:23:37.175Z,65.23
2022-09-03T13:26:20.890Z,65.01
2022-09-03T13:29:14.434Z,64.97
2022-09-03T13:31:47.839Z,61.41
2022-09-03T13:34:24.005Z,62.31
2022-09-03T13:36:59.705Z,61.59
2022-09-03T13:39:32.977Z,61.26
2022-09-03T13:42:11.976Z,60.23
2022-09-03T13:44:50.125Z,58.65
2022-09-03T13:47:33.376Z,58.64
2022-09-03T13:50:26.704Z,56.77
2022-09-03T13:53:04.053Z,55.81
2022-09-03T13:55:38.451Z,54.73
2022-09-03T13:58:13.059Z,53.33
2022-09-03T14:00:50.308Z,53.66
2022-09-03T14:03:33.334Z,53.52
2022-09-03T14:06:15.007Z,51.95
2022-09-03T14:08:59.064Z,52.24
2022-09-03T14:11:35.805Z,51.11
2022-09-03T14:14:18.132Z,51.51
2022-09-03T14:16:55.259Z,49.73
2022-09-03T14:19:37.131Z,49.95
2022-09-03T14:22:12.219Z,49.07
2022-09-03T14:24:51.229Z,48.53
2022-09-03T14:27:28.417Z,48.09
2022-09-03T14:30:02.184Z,48.07
2022-09-03T14:32:44.150Z,47.71
2022-09-03T14:35:31.192Z,48.39
2022-09-03T14:39:16.819Z,48.52
2022-09-03T14:41:58.607Z,50.66
2022-09-03T14:44:51.936Z,50.08
2022-09-03T14:47:39.832Z,49.22
2022-09-03T14:50:23.548Z,47.30
2022-09-03T14:53:28.439Z,47.75
2022-09-03T14:56:34.072Z,48.64
2022-09-03T14:59:21.664Z,49.78
2022-09-03T15:02:08.287Z,50.43
2022-09-03T15:04:57.001Z,50.50
2022-09-03T15:07:37.491Z,52.89
2022-09-03T15:10:20.220Z,53.60
2022-09-03T15:12:53.171Z,53.76
2022-09-03T15:15:27.988Z,54.44
2022-09-03T15:18:06.185Z,54.91
2022-09-03T15:20:51.418Z,56.08
2022-09-03T15:23:41.111Z,56.71
2022-09-03T15:26:44.423Z,57.23
2022-09-03T15:29:31.091Z,57.86
2022-09-03T15:32:09.236Z,58.65
2022-09-03T15:35:00.934Z,58.67
2022-09-03T15:37:39.840Z,59.25
2022-09-03T15:40:21.830Z,59.87
2022-09-03T15:42:56.845Z,60.02
2022-09-03T15:45:37.709Z,60.69
2022-09-03T15:48:27.641Z,61.13
2022-09-03T15:51:10.063Z,61.86
2022-09-03T15:53:51.253Z,62.20
2022-09-03T15:56:29.333Z,62.55
2022-09-03T15:59:04.705Z,63.56
2022-09-03T16:01:51.068Z,64.57
2022-09-03T16:04:34.959Z,65.44
2022-09-03T16:07:17.377Z,65.11
2022-09-03T16:10:23.820Z,65.74
2022-09-03T16:13:04.568Z,66.35
2022-09-03T16:15:41.441Z,66.47
2022-09-03T16:18:21.480Z,66.86
2022-09-03T16:21:00.019Z,67.39
2022-09-03T16:23:37.159Z,67.43
2022-09-03T16:26:12.236Z,67.68
2022-09-03T16:28:49.011Z,67.87
2022-09-03T16:31:29.697Z,68.16
2022-09-03T16:34:05.137Z,67.76
2022-09-03T16:36:45.852Z,67.82
2022-09-03T16:39:26.792Z,67.86
2022-09-03T16:42:05.197Z,68.07
2022-09-03T16:44:50.587Z,68.35
2022-09-03T16:47:32.028Z,68.21
2022-09-03T16:50:14.940Z,68.56
2022-09-03T16:52:56.895Z,68.61
2022-09-03T16:55:32.692Z,68.84
2022-09-03T16:58:23.181Z,69.30
2022-09-03T17:01:10.788Z,69.24
2022-09-03T17:04:05.664Z,69.70
2022-09-03T17:06:57.494Z,70.40
2022-09-03T17:09:46.757Z,71.05
2022-09-03T17:12:26.457Z,71.61
2022-09-03T17:15:23.125Z,72.27
2022-09-03T17:18:17.787Z,72.79
2022-09-03T17:20:56.697Z,73.42
2022-09-03T17:23:47.760Z,73.73
2022-09-03T17:26:29.930Z,74.08
2022-09-03T17:29:13.054Z,73.80
2022-09-03T17:31:52.203Z,74.20
2022-09-03T17:34:39.044Z,74.32
2022-09-03T17:37:19.903Z,74.38
2022-09-03T17:40:26.844Z,74.88
2022-09-03T17:43:06.096Z,74.93
2022-09-03T17:45:47.568Z,75.43
2022-09-03T17:48:45.566Z,76.09
2022-09-03T17:51:28.223Z,76.29
2022-09-03T17:54:06.280Z,76.67
2022-09-03T17:56:47.119Z,77.16
2022-09-03T17:59:26.029Z,77.65
2022-09-03T18:02:05.916Z,78.03
2022-09-03T18:04:51.132Z,78.63
2022-09-03T18:07:29.017Z,79.05
2022-09-03T18:10:09.353Z,79.42
2022-09-03T18:13:04.049Z,79.74
2022-09-03T18:15:39.347Z,79.97
2022-09-03T18:18:25.846Z,80.42
2022-09-03T18:21:24.289Z,81.00
2022-09-03T18:24:19.747Z,81.17
2022-09-03T18:27:13.999Z,81.67
2022-09-03T18:30:06.691Z,81.80
2022-09-03T18:32:52.969Z,82.14
2022-09-03T18:35:39.038Z,82.26
2022-09-03T18:38:26.124Z,82.85
2022-09-03T18:41:22.853Z,82.85
2022-09-03T18:44:21.039Z,83.15
2022-09-03T18:48:01.830Z,83.35
2022-09-03T18:50:31.297Z,83.45
2022-09-03T18:53:29.005Z,83.62
2022-09-03T18:56:32.634Z,83.84
2022-09-03T18:59:36.040Z,84.15
2022-09-03T19:02:32.885Z,84.29
2022-09-03T19:05:33.549Z,84.67
2022-09-03T19:08:30.847Z,84.82
2022-09-03T19:11:27.737Z,84.70
2022-09-03T19:14:21.162Z,85.11
2022-09-03T19:17:20.161Z,85.28
2022-09-03T19:20:23.737Z,85.36
2022-09-03T19:23:09.472Z,85.77
2022-09-03T19:25:55.535Z,85.78
2022-09-03T19:28:44.824Z,85.81
2022-09-03T19:31:59.843Z,86.35
2022-09-03T19:35:24.151Z,86.52
2022-09-03T19:38:25.322Z,86.95
2022-09-03T19:41:24.650Z,87.18
2022-09-03T19:44:37.427Z,87.32
2022-09-03T19:47:26.324Z,87.44
2022-09-03T19:50:22.124Z,87.17
2022-09-03T19:53:13.380Z,87.33
2022-09-03T19:56:07.592Z,87.65
2022-09-03T19:58:58.931Z,87.41
2022-09-03T20:01:52.892Z,87.63
2022-09-03T20:04:51.160Z,87.99
2022-09-03T20:07:38.772Z,88.08
2022-09-03T20:10:23.253Z,87.83
2022-09-03T20:13:02.593Z,88.06
2022-09-03T20:15:43.875Z,88.24
2022-09-03T20:18:27.075Z,88.29
2022-09-03T20:21:11.240Z,88.07
2022-09-03T20:23:48.076Z,88.26
2022-09-03T20:26:37.414Z,88.39
2022-09-03T20:29:46.400Z,88.51
2022-09-03T20:32:41.531Z,88.49
2022-09-03T20:35:20.300Z,88.75
2022-09-03T20:37:58.742Z,88.59
2022-09-03T20:40:38.847Z,88.81
2022-09-03T20:43:42.881Z,89.13
2022-09-03T20:46:39.353Z,89.17
2022-09-03T20:49:23.759Z,88.84
2022-09-03T20:52:06.399Z,88.91
2022-09-03T20:54:39.181Z,89.03
2022-09-03T20:57:37.337Z,89.25
2022-09-03T21:00:12.485Z,89.34
2022-09-03T21:03:16.933Z,89.67
2022-09-03T21:06:10.351Z,89.58
2022-09-03T21:09:06.754Z,89.56
2022-09-03T21:11:44.743Z,89.64
2022-09-03T21:14:33.559Z,89.49
2022-09-03T21:17:21.060Z,89.73
2022-09-03T21:20:04.401Z,89.72
2022-09-03T21:22:44.739Z,89.86
2022-09-03T21:25:21.372Z,90.02
2022-09-03T21:27:56.057Z,90.03
2022-09-03T21:30:24.735Z,89.78
2022-09-03T21:33:00.455Z,90.14
2022-09-03T21:35:33.838Z,90.25
2022-09-03T21:38:07.731Z,90.05
2022-09-03T21:40:46.800Z,90.26
2022-09-03T21:43:20.335Z,90.30
2022-09-03T21:46:00.995Z,90.23
2022-09-03T21:48:36.157Z,90.34
2022-09-03T21:51:12.087Z,90.10
2022-09-03T21:53:47.336Z,90.37
2022-09-03T21:56:54.876Z,90.29
2022-09-03T21:59:48.012Z,90.38
2022-09-03T22:02:25.239Z,90.66
2022-09-03T22:04:55.350Z,90.51
2022-09-03T22:07:53.386Z,90.94
2022-09-03T22:10:32.429Z,91.03
2022-09-03T22:13:16.099Z,90.74
2022-09-03T22:15:50.589Z,91.00
2022-09-03T22:18:28.857Z,90.69
2022-09-03T22:21:23.260Z,90.86
2022-09-03T22:24:10.256Z,90.83
2022-09-03T22:26:46.379Z,90.69
2022-09-03T22:29:28.539Z,91.11
2022-09-03T22:32:05.870Z,90.94
2022-09-03T22:35:06.681Z,91.12
2022-09-03T22:37:54.768Z,91.64
2022-09-03T22:40:29.615Z,91.53
2022-09-03T22:43:12.635Z,91.69
2022-09-03T22:46:03.071Z,91.85
2022-09-03T22:49:11.626Z,91.79
2022-09-03T22:51:56.955Z,91.92
2022-09-03T22:54:36.979Z,92.06
2022-09-03T22:57:07.761Z,91.91
2022-09-03T22:59:42.509Z,91.80
2022-09-03T23:02:16.650Z,92.19
2022-09-03T23:04:51.887Z,91.77
2022-09-03T23:07:28.202Z,92.05
2022-09-03T23:10:03.421Z,91.92
2022-09-03T23:12:40.164Z,91.78
2022-09-03T23:15:14.078Z,92.06
2022-09-03T23:17:51.037Z,92.01
2022-09-03T23:20:23.479Z,92.02
2022-09-03T23:22:59.774Z,92.12
2022-09-03T23:25:35.979Z,92.10
2022-09-03T23:28:12.342Z,91.97
2022-09-03T23:30:41.666Z,92.27
2022-09-03T23:33:11.311Z,92.12
2022-09-03T23:35:49.226Z,92.09
2022-09-03T23:38:29.448Z,92.42
2022-09-03T23:41:03.237Z,92.39
2022-09-03T23:44:07.592Z,92.37
2022-09-03T23:46:45.095Z,92.31
2022-09-03T23:49:35.075Z,92.49
2022-09-03T23:52:39.108Z,92.58
2022-09-03T23:55:19.308Z,92.45
2022-09-03T23:58:00.894Z,92.52
